Time;durP1;ratioP1;P1;durP2;ratioP2;P2;SDS_P1;SDS_P2;PMS_P1;PMS_P2;Temp;Humidity;BMP_temperature;BMP_pressure;BME280_temperature;BME280_humidity;BME280_pressure;Samples;Min_cycle;Max_cycle;Signal;HPM_P1;HPM_P2
2022/06/22 00:02:09;;;;;;;4.05;1.55;;;23.30;63.80;;;;;;5035293;28;20108;-81
2022/06/22 00:04:44;;;;;;;4.50;1.65;;;23.30;62.80;;;;;;5036548;28;20100;-80
2022/06/22 00:07:15;;;;;;;1.73;1.23;;;23.30;62.70;;;;;;5034635;28;20041;-80
2022/06/22 00:09:43;;;;;;;4.05;1.45;;;23.20;62.20;;;;;;5024412;28;20549;-80
2022/06/22 00:12:21;;;;;;;4.35;1.20;;;23.30;61.70;;;;;;5014767;28;20038;-81
2022/06/22 00:14:50;;;;;;;3.15;1.17;;;23.20;61.10;;;;;;4998926;28;20036;-80
2022/06/22 00:17:31;;;;;;;4.13;2.20;;;23.20;61.20;;;;;;4998349;28;20493;-80
2022/06/22 00:20:28;;;;;;;5.65;1.52;;;23.20;61.10;;;;;;5015031;28;20030;-80
2022/06/22 00:23:18;;;;;;;3.20;1.23;;;23.10;61.00;;;;;;4991670;28;20096;-81
2022/06/22 00:25:44;;;;;;;3.53;1.30;;;23.10;61.30;;;;;;4988043;28;20041;-80
2022/06/22 00:28:35;;;;;;;3.72;1.40;;;23.00;61.50;;;;;;5015622;28;20030;-80
2022/06/22 00:31:21;;;;;;;2.10;1.10;;;23.00;61.40;;;;;;4998725;28;20033;-81
2022/06/22 00:34:11;;;;;;;2.90;1.20;;;23.00;61.40;;;;;;5016160;28;20034;-80
2022/06/22 00:36:48;;;;;;;1.67;1.27;;;23.00;61.50;;;;;;5015772;28;20360;-81
2022/06/22 00:39:22;;;;;;;5.50;1.10;;;23.00;61.80;;;;;;5015075;28;20057;-81
2022/06/22 00:42:15;;;;;;;3.45;1.30;;;22.90;62.00;;;;;;5015182;28;20038;-80
2022/06/22 00:45:11;;;;;;;2.70;1.25;;;22.90;62.30;;;;;;5015094;28;20474;-81
2022/06/22 00:47:47;;;;;;;2.22;1.27;;;22.80;62.30;;;;;;4998524;28;20029;-81
2022/06/22 00:50:38;;;;;;;3.03;1.17;;;22.70;62.40;;;;;;4997817;28;20025;-79
2022/06/22 00:53:17;;;;;;;3.57;1.20;;;22.60;62.80;;;;;;4998347;28;20030;-80
2022/06/22 00:56:04;;;;;;;3.00;0.98;;;22.60;63.50;;;;;;5014929;28;20494;-80
2022/06/22 00:58:44;;;;;;;2.53;1.20;;;22.50;63.80;;;;;;5015145;28;20558;-80
2022/06/22 01:01:19;;;;;;;2.65;1.42;;;22.50;63.70;;;;;;5015068;28;20115;-79
2022/06/22 01:03:54;;;;;;;2.58;1.35;;;22.50;63.60;;;;;;5014448;28;20069;-80
2022/06/22 01:06:30;;;;;;;1.73;1.20;;;22.40;63.50;;;;;;5014978;28;20069;-80
2022/06/22 01:09:03;;;;;;;3.42;1.23;;;22.40;63.80;;;;;;4997537;28;20117;-80
2022/06/22 01:12:22;;;;;;;2.83;1.27;;;22.40;63.80;;;;;;5013636;28;20188;-80
2022/06/22 01:15:04;;;;;;;4.75;1.33;;;22.40;63.80;;;;;;4997769;28;20033;-80
2022/06/22 01:17:37;;;;;;;;;;;22.40;64.10;;;;;;4997509;28;20025;-80
2022/06/22 01:20:17;;;;;;;3.40;1.30;;;22.30;64.10;;;;;;5014086;28;19905;-80
2022/06/22 01:22:49;;;;;;;2.28;1.35;;;22.30;64.30;;;;;;4997504;28;20037;-80
2022/06/22 01:25:33;;;;;;;;;;;22.30;64.40;;;;;;5013663;28;20030;-79
2022/06/22 01:28:00;;;;;;;3.65;1.40;;;22.30;64.60;;;;;;5013606;28;19955;-80
2022/06/22 01:30:47;;;;;;;2.38;1.35;;;22.20;64.60;;;;;;5012961;28;20395;-79
2022/06/22 01:33:25;;;;;;;3.63;1.50;;;22.20;64.70;;;;;;4997170;28;20088;-80
2022/06/22 01:35:57;;;;;;;3.50;1.55;;;22.20;64.60;;;;;;4997536;28;20022;-81
2022/06/22 01:38:26;;;;;;;1.42;1.30;;;22.10;64.60;;;;;;5014609;28;20025;-80
2022/06/22 01:41:21;;;;;;;3.00;1.35;;;22.20;64.60;;;;;;4997625;28;20434;-81
2022/06/22 01:44:13;;;;;;;2.38;1.30;;;22.10;64.30;;;;;;5014117;28;20036;-79
2022/06/22 01:46:48;;;;;;;1.38;1.20;;;22.20;65.10;;;;;;5001595;28;20038;-80
2022/06/22 01:49:29;;;;;;;3.88;1.27;;;22.20;64.40;;;;;;5014218;28;20026;-80
2022/06/22 01:51:59;;;;;;;;;;;22.20;63.90;;;;;;5014968;28;20065;-80
2022/06/22 01:54:37;;;;;;;2.92;1.20;;;22.20;64.40;;;;;;5012621;28;19905;-80
2022/06/22 01:57:30;;;;;;;5.15;1.30;;;22.10;66.20;;;;;;5013252;28;20493;-79
2022/06/22 02:00:15;;;;;;;2.90;1.25;;;22.00;68.00;;;;;;5013355;28;20056;-80
2022/06/22 02:03:16;;;;;;;3.22;1.30;;;21.90;66.30;;;;;;5014365;28;20038;-81
2022/06/22 02:05:47;;;;;;;;;;;21.90;66.70;;;;;;5013603;28;20533;-81
2022/06/22 02:08:36;;;;;;;4.40;1.58;;;21.90;69.00;;;;;;5012090;28;20413;-79
2022/06/22 02:11:15;;;;;;;3.78;1.33;;;21.70;70.90;;;;;;4996990;28;20042;-81
2022/06/22 02:14:03;;;;;;;4.05;1.40;;;21.60;70.70;;;;;;4997042;28;20121;-81
2022/06/22 02:16:57;;;;;;;2.33;1.25;;;21.60;71.10;;;;;;4996337;28;20467;-80
2022/06/22 02:19:24;;;;;;;2.95;1.40;;;21.60;72.00;;;;;;4996403;28;20391;-80
2022/06/22 02:21:58;;;;;;;5.57;1.60;;;21.40;72.20;;;;;;5013886;28;20139;-80
2022/06/22 02:24:41;;;;;;;5.45;1.50;;;21.30;72.90;;;;;;4996368;28;20084;-80
2022/06/22 02:27:29;;;;;;;2.30;1.60;;;21.20;73.70;;;;;;5013994;28;20026;-80
2022/06/22 02:29:58;;;;;;;3.60;1.60;;;21.20;73.70;;;;;;5013991;28;20057;-81
2022/06/22 02:32:30;;;;;;;3.97;1.67;;;21.10;75.10;;;;;;4996168;28;20084;-80
2022/06/22 02:34:57;;;;;;;3.28;1.85;;;21.10;75.60;;;;;;4996764;28;20037;-80
2022/06/22 02:37:27;;;;;;;3.20;1.80;;;21.00;75.50;;;;;;5012419;28;20026;-81
2022/06/22 02:39:58;;;;;;;1.95;1.50;;;21.00;76.00;;;;;;5013164;28;20028;-80
2022/06/22 02:45:10;;;;;;;5.22;2.03;;;21.00;76.40;;;;;;5013810;28;20494;-80
2022/06/22 02:47:51;;;;;;;3.42;1.70;;;21.00;74.40;;;;;;4996144;28;20028;-80
2022/06/22 02:50:25;;;;;;;4.47;2.03;;;21.00;74.00;;;;;;5012868;28;20387;-81
2022/06/22 02:53:05;;;;;;;4.53;2.00;;;20.90;73.40;;;;;;5012656;28;20275;-80
2022/06/22 02:55:35;;;;;;;2.08;1.58;;;21.00;73.50;;;;;;4995844;28;20030;-80
2022/06/22 02:58:03;;;;;;;2.20;2.00;;;21.00;74.20;;;;;;4996436;28;20132;-80
2022/06/22 03:00:40;;;;;;;3.90;1.65;;;20.90;74.00;;;;;;4995941;28;20173;-80
2022/06/22 03:03:09;;;;;;;5.18;1.77;;;20.80;74.00;;;;;;5012638;28;20036;-80
2022/06/22 03:05:37;;;;;;;5.32;2.00;;;20.80;74.30;;;;;;5012965;28;20022;-80
2022/06/22 03:08:04;;;;;;;3.80;2.10;;;20.80;74.20;;;;;;5012333;28;20026;-80
2022/06/22 03:10:48;;;;;;;4.53;1.83;;;20.80;74.50;;;;;;4995526;28;20058;-79
2022/06/22 03:13:20;;;;;;;6.90;1.80;;;20.70;74.10;;;;;;4996290;28;20030;-79
2022/06/22 03:15:47;;;;;;;3.58;1.42;;;20.70;72.40;;;;;;4996110;28;20022;-81
2022/06/22 03:18:23;;;;;;;3.30;2.10;;;20.70;73.60;;;;;;5014647;28;20041;-81
2022/06/22 03:20:58;;;;;;;1.88;1.50;;;20.70;74.10;;;;;;5000643;28;20057;-81
2022/06/22 03:23:26;;;;;;;2.58;1.98;;;20.60;74.60;;;;;;5000034;28;20459;-81
2022/06/22 03:26:00;;;;;;;2.85;2.10;;;20.60;74.90;;;;;;5017325;28;20026;-80
2022/06/22 03:28:35;;;;;;;3.58;1.70;;;20.60;74.90;;;;;;4999864;28;20044;-80
2022/06/22 03:31:06;;;;;;;2.13;1.67;;;20.60;75.10;;;;;;5017234;28;20033;-80
2022/06/22 03:33:45;;;;;;;2.60;2.08;;;20.60;75.90;;;;;;5016640;28;20482;-81
2022/06/22 03:36:34;;;;;;;4.90;2.15;;;20.60;76.80;;;;;;5017271;28;20034;-80
2022/06/22 03:39:06;;;;;;;3.22;1.73;;;20.60;77.00;;;;;;4987609;28;20065;-81
2022/06/22 03:41:37;;;;;;;3.33;1.80;;;20.50;76.70;;;;;;5016455;28;20065;-79
2022/06/22 03:44:10;;;;;;;6.88;1.88;;;20.50;77.10;;;;;;4999824;28;20026;-79
2022/06/22 03:46:59;;;;;;;2.28;2.08;;;20.50;78.00;;;;;;4998992;28;20056;-79
2022/06/22 03:49:34;;;;;;;2.22;1.98;;;20.40;78.20;;;;;;4998044;28;20038;-79
2022/06/22 03:52:22;;;;;;;4.45;2.25;;;20.40;78.40;;;;;;5016539;28;20034;-80
2022/06/22 03:54:56;;;;;;;2.65;1.90;;;20.40;78.50;;;;;;5016620;28;20026;-80
2022/06/22 03:57:27;;;;;;;3.10;2.03;;;20.50;78.60;;;;;;4998655;28;20032;-80
2022/06/22 03:59:55;;;;;;;2.85;1.70;;;20.50;78.90;;;;;;5016655;28;20109;-80
2022/06/22 04:02:23;;;;;;;2.45;2.10;;;20.50;79.20;;;;;;5014975;28;20030;-79
2022/06/22 04:04:52;;;;;;;3.20;2.08;;;20.50;79.30;;;;;;4999105;28;20474;-79
2022/06/22 04:07:18;;;;;;;2.55;1.95;;;20.50;79.50;;;;;;5015376;28;20022;-78
2022/06/22 04:09:52;;;;;;;4.65;1.98;;;20.50;79.40;;;;;;5014739;28;20119;-80
2022/06/22 04:12:29;;;;;;;2.85;1.90;;;20.60;78.50;;;;;;4998932;28;20386;-80
2022/06/22 04:15:23;;;;;;;2.22;2.00;;;20.60;79.20;;;;;;4999116;28;20060;-81
2022/06/22 04:17:54;;;;;;;4.22;1.80;;;20.50;79.80;;;;;;5016525;28;20026;-82
2022/06/22 04:20:50;;;;;;;3.33;1.83;;;20.50;79.50;;;;;;5016484;28;20026;-81
2022/06/22 04:23:41;;;;;;;3.45;1.85;;;20.50;78.90;;;;;;4999052;28;20494;-79
2022/06/22 04:26:11;;;;;;;2.13;1.50;;;20.50;76.80;;;;;;4983584;28;20038;-79
2022/06/22 04:28:42;;;;;;;5.32;1.92;;;20.60;76.20;;;;;;5014392;28;20466;-79
2022/06/22 04:31:13;;;;;;;2.10;1.43;;;20.70;75.50;;;;;;4997215;28;20034;-79
2022/06/22 04:33:46;;;;;;;3.20;1.65;;;20.70;74.70;;;;;;4997840;28;20065;-79
2022/06/22 04:36:22;;;;;;;4.07;1.55;;;20.70;73.30;;;;;;4998543;28;20034;-79
2022/06/22 04:38:59;;;;;;;2.55;1.27;;;20.80;72.60;;;;;;4998182;28;20030;-79
2022/06/22 04:41:37;;;;;;;1.63;1.05;;;20.80;72.50;;;;;;5015438;28;20475;-79
2022/06/22 04:44:22;;;;;;;2.33;1.38;;;20.80;72.30;;;;;;4998308;28;20475;-79
2022/06/22 04:47:09;;;;;;;2.88;1.27;;;20.80;72.10;;;;;;4998276;28;20081;-79
2022/06/22 04:49:50;;;;;;;2.70;1.05;;;20.90;71.90;;;;;;4997442;28;20037;-79
2022/06/22 04:52:42;;;;;;;3.03;1.50;;;20.90;71.40;;;;;;4998405;28;20030;-79
2022/06/22 04:55:14;;;;;;;1.63;1.23;;;21.00;71.30;;;;;;4998194;28;20026;-79
2022/06/22 04:57:42;;;;;;;1.90;1.20;;;21.00;71.00;;;;;;5014137;28;20572;-79
2022/06/22 05:00:16;;;;;;;2.65;1.65;;;21.00;71.00;;;;;;4998083;28;20025;-79
2022/06/22 05:02:43;;;;;;;2.95;1.40;;;21.00;70.90;;;;;;5014078;28;20033;-79
2022/06/22 05:05:19;;;;;;;2.80;1.20;;;21.00;71.20;;;;;;4998015;28;20029;-79
2022/06/22 05:08:12;;;;;;;2.00;1.15;;;21.10;71.50;;;;;;4997222;28;20030;-79
2022/06/22 05:10:57;;;;;;;2.72;1.35;;;21.10;71.70;;;;;;5031328;28;20110;-79
2022/06/22 05:13:27;;;;;;;3.58;1.30;;;21.10;71.80;;;;;;5033446;28;20033;-79
2022/06/22 05:15:56;;;;;;;2.58;1.30;;;21.20;71.80;;;;;;5034173;28;20028;-80
2022/06/22 05:18:25;;;;;;;5.60;1.65;;;21.20;71.50;;;;;;5034555;28;20025;-80
2022/06/22 05:21:01;;;;;;;6.25;1.40;;;21.10;71.80;;;;;;5035316;28;20041;-81
2022/06/22 05:23:29;;;;;;;3.28;1.30;;;21.20;71.90;;;;;;5033403;28;20025;-80
2022/06/22 05:25:57;;;;;;;2.80;1.30;;;21.20;71.90;;;;;;5034841;28;20036;-81
2022/06/22 05:28:34;;;;;;;1.52;1.40;;;21.20;72.00;;;;;;5034909;28;20083;-82
2022/06/22 05:31:11;;;;;;;4.07;1.42;;;21.20;72.60;;;;;;5034880;28;20034;-81
2022/06/22 05:33:41;;;;;;;3.75;1.95;;;21.30;73.00;;;;;;5034351;28;20022;-81
2022/06/22 05:36:10;;;;;;;2.58;1.55;;;21.30;73.30;;;;;;5033510;28;20117;-81
2022/06/22 05:38:40;;;;;;;4.40;1.95;;;21.30;73.20;;;;;;5033327;28;20029;-80
2022/06/22 05:41:08;;;;;;;3.40;2.03;;;21.30;73.10;;;;;;5033831;28;20029;-81
2022/06/22 05:43:38;;;;;;;4.97;2.20;;;21.20;73.50;;;;;;5033412;28;20101;-82
2022/06/22 05:46:06;;;;;;;5.20;1.48;;;21.20;73.70;;;;;;5034056;28;20022;-82
2022/06/22 05:48:34;;;;;;;2.95;1.65;;;21.20;74.10;;;;;;5016713;28;20033;-82
2022/06/22 05:51:19;;;;;;;4.63;1.63;;;21.20;73.60;;;;;;5033514;28;20041;-82
2022/06/22 05:53:50;;;;;;;3.65;1.40;;;21.10;73.40;;;;;;5033042;28;20041;-83
2022/06/22 05:56:38;;;;;;;2.40;1.50;;;21.20;72.70;;;;;;5034302;28;20467;-82
2022/06/22 05:59:28;;;;;;;2.80;1.52;;;21.20;72.40;;;;;;5033494;28;20029;-82
2022/06/22 06:02:07;;;;;;;3.65;1.38;;;21.20;71.90;;;;;;5033628;28;20049;-83
2022/06/22 06:05:05;;;;;;;3.88;1.77;;;21.20;71.80;;;;;;5032714;28;20462;-82
2022/06/22 06:07:36;;;;;;;5.13;1.77;;;21.30;71.40;;;;;;5012603;28;20037;-82
2022/06/22 06:10:08;;;;;;;5.80;1.63;;;21.40;71.40;;;;;;5019869;28;20053;-81
2022/06/22 06:12:41;;;;;;;4.03;1.30;;;21.50;71.20;;;;;;5013285;28;20088;-82
2022/06/22 06:15:11;;;;;;;4.65;1.30;;;21.50;71.20;;;;;;5013699;28;20026;-82
2022/06/22 06:17:44;;;;;;;4.85;1.50;;;21.50;70.90;;;;;;4996685;28;20463;-83
2022/06/22 06:20:26;;;;;;;2.38;1.42;;;21.50;71.10;;;;;;5013039;28;20061;-82
2022/06/22 06:22:59;;;;;;;4.28;1.60;;;21.50;71.00;;;;;;5012819;28;20029;-82
2022/06/22 06:28:39;;;;;;;4.28;1.40;;;21.60;71.50;;;;;;5012868;28;20489;-79
2022/06/22 06:31:17;;;;;;;3.33;1.40;;;21.60;71.80;;;;;;5012443;28;20025;-80
2022/06/22 06:33:43;;;;;;;2.47;1.70;;;21.60;72.00;;;;;;4995987;28;20038;-80
2022/06/22 06:36:38;;;;;;;3.53;1.50;;;21.50;72.00;;;;;;5013737;28;20028;-80
2022/06/22 06:39:09;;;;;;;5.72;1.52;;;21.60;72.30;;;;;;5013894;28;20485;-80
2022/06/22 06:41:42;;;;;;;3.33;1.40;;;21.60;71.40;;;;;;5012239;28;20080;-80
2022/06/22 06:44:16;;;;;;;2.25;1.40;;;21.70;71.40;;;;;;5010373;28;20050;-80
2022/06/22 06:46:49;;;;;;;4.28;1.48;;;21.70;71.90;;;;;;5012026;28;20049;-80
2022/06/22 06:49:31;;;;;;;2.55;1.42;;;21.70;71.90;;;;;;5012683;28;20030;-80
2022/06/22 06:52:01;;;;;;;3.30;1.40;;;21.80;70.70;;;;;;5012598;28;20022;-80
2022/06/22 06:54:39;;;;;;;3.78;1.42;;;21.70;70.60;;;;;;5016559;28;20061;-81
2022/06/22 06:57:13;;;;;;;3.80;1.20;;;21.70;70.60;;;;;;5017555;28;20036;-81
2022/06/22 06:59:39;;;;;;;5.22;1.58;;;21.70;70.00;;;;;;4999249;28;20030;-80
2022/06/22 07:02:34;;;;;;;5.40;1.40;;;21.70;69.70;;;;;;5016678;28;20044;-80
2022/06/22 07:05:03;;;;;;;3.03;1.23;;;21.70;69.60;;;;;;5000223;28;20036;-80
2022/06/22 07:07:54;;;;;;;2.92;1.40;;;21.80;69.60;;;;;;5016302;28;20022;-79
2022/06/22 07:10:32;;;;;;;;;;;21.80;70.00;;;;;;5020424;28;20160;-81
2022/06/22 07:13:01;;;;;;;3.42;1.85;;;21.80;70.30;;;;;;5018768;28;19955;-82
2022/06/22 07:15:33;;;;;;;2.90;1.63;;;21.80;70.10;;;;;;5023259;28;20032;-82
2022/06/22 07:18:08;;;;;;;2.95;1.48;;;21.80;70.10;;;;;;5023338;28;20079;-81
2022/06/22 07:20:41;;;;;;;3.35;1.50;;;21.80;70.40;;;;;;5031440;28;20028;-80
2022/06/22 07:23:20;;;;;;;2.40;1.40;;;21.90;71.20;;;;;;5027509;28;20113;-81
2022/06/22 07:25:55;;;;;;;4.22;1.45;;;21.90;71.60;;;;;;5007546;28;20034;-83
2022/06/22 07:28:56;;;;;;;2.63;1.20;;;21.90;70.90;;;;;;5027157;28;20497;-82
2022/06/22 07:31:30;;;;;;;2.42;1.20;;;22.00;70.60;;;;;;5033857;28;20473;-80
2022/06/22 07:34:12;;;;;;;2.47;1.25;;;22.00;70.30;;;;;;5034019;28;20036;-80
2022/06/22 07:36:50;;;;;;;6.93;1.63;;;22.00;70.30;;;;;;5028263;28;20050;-81
2022/06/22 07:39:22;;;;;;;4.97;2.28;;;22.00;70.50;;;;;;5022400;28;20569;-81
2022/06/22 07:41:47;;;;;;;9.88;2.40;;;22.00;70.10;;;;;;5031020;28;20504;-80
2022/06/22 07:44:24;;;;;;;3.03;1.48;;;22.00;70.50;;;;;;5032125;28;20021;-82
2022/06/22 07:47:22;;;;;;;2.00;1.20;;;21.90;70.70;;;;;;5022278;28;20471;-81
2022/06/22 07:49:59;;;;;;;3.13;1.33;;;21.80;70.90;;;;;;4996275;28;20041;-82
2022/06/22 07:52:34;;;;;;;5.85;1.70;;;21.80;71.00;;;;;;5018676;28;20041;-83
2022/06/22 07:55:05;;;;;;;6.35;1.80;;;21.80;71.30;;;;;;5012882;28;20026;-81
2022/06/22 07:58:08;;;;;;;6.07;1.95;;;21.80;71.40;;;;;;5031494;28;20036;-81
2022/06/22 08:00:36;;;;;;;6.82;1.20;;;21.80;71.80;;;;;;5031894;28;20386;-84
2022/06/22 08:03:10;;;;;;;4.53;1.23;;;21.80;71.50;;;;;;5023163;28;20022;-81
2022/06/22 08:05:40;;;;;;;4.55;1.50;;;21.90;71.30;;;;;;5015179;28;20057;-81
2022/06/22 08:08:39;;;;;;;3.20;1.50;;;22.00;71.90;;;;;;5033782;28;20125;-80
2022/06/22 08:11:07;;;;;;;4.22;1.58;;;22.00;71.60;;;;;;4990966;28;20078;-80
2022/06/22 08:13:49;;;;;;;2.78;1.55;;;22.00;72.60;;;;;;5008671;28;20025;-79
2022/06/22 08:16:17;;;;;;;;;;;22.00;71.60;;;;;;5013831;28;20049;-80
2022/06/22 08:18:44;;;;;;;8.18;1.60;;;22.00;71.60;;;;;;5006614;28;19913;-80
2022/06/22 08:21:16;;;;;;;3.03;1.70;;;22.00;70.60;;;;;;5005926;28;20170;-79
2022/06/22 08:23:41;;;;;;;;;;;22.10;70.00;;;;;;5010878;28;20464;-80
2022/06/22 08:26:21;;;;;;;4.93;1.70;;;22.20;70.00;;;;;;5006323;28;19993;-80
2022/06/22 08:28:47;;;;;;;4.22;1.60;;;22.10;69.60;;;;;;5003501;28;20028;-82
2022/06/22 08:31:13;;;;;;;4.00;1.77;;;22.00;69.90;;;;;;5007887;28;20034;-82
2022/06/22 08:33:40;;;;;;;2.95;1.60;;;22.00;70.10;;;;;;4996256;28;20031;-83
2022/06/22 08:36:18;;;;;;;7.20;1.88;;;22.00;71.10;;;;;;5011595;28;20468;-90
2022/06/22 08:39:09;;;;;;;4.55;1.90;;;21.90;71.60;;;;;;4997879;28;20021;-90
2022/06/22 08:41:55;;;;;;;3.23;1.90;;;22.00;71.60;;;;;;5000093;28;20530;-91
2022/06/22 08:44:48;;;;;;;3.53;1.70;;;22.00;71.00;;;;;;4998019;28;20030;-89
2022/06/22 08:47:19;;;;;;;3.85;1.52;;;22.00;70.90;;;;;;5015852;28;20032;-89
2022/06/22 08:50:00;;;;;;;;;;;22.00;71.30;;;;;;4995883;28;20029;-94
2022/06/22 08:52:40;;;;;;;3.72;1.58;;;22.10;71.40;;;;;;5014921;28;19914;-94
2022/06/22 08:55:23;;;;;;;2.93;1.70;;;22.10;71.50;;;;;;4993069;28;20027;-89
2022/06/22 08:58:07;;;;;;;4.00;1.70;;;22.00;71.10;;;;;;5011108;28;20271;-91
2022/06/22 09:00:40;;;;;;;3.20;1.63;;;22.00;71.50;;;;;;4996908;28;20137;-91
2022/06/22 09:03:36;;;;;;;3.95;1.50;;;22.00;71.60;;;;;;5011763;28;20048;-90
2022/06/22 09:06:18;;;;;;;3.65;1.75;;;21.90;71.90;;;;;;5012798;28;20474;-89
2022/06/22 09:09:18;;;;;;;3.00;1.88;;;21.80;72.60;;;;;;5016012;28;20029;-89
2022/06/22 09:12:01;;;;;;;3.78;2.13;;;21.80;73.00;;;;;;5004045;28;20109;-91
2022/06/22 09:14:47;;;;;;;5.75;1.90;;;21.70;73.40;;;;;;4993632;28;20026;-83
2022/06/22 09:17:49;;;;;;;6.20;2.00;;;21.70;73.90;;;;;;5018356;28;20034;-85
2022/06/22 09:20:28;;;;;;;3.75;1.70;;;21.70;74.10;;;;;;5024497;28;20033;-83
2022/06/22 09:22:55;;;;;;;4.72;2.05;;;21.60;74.10;;;;;;4985276;28;20164;-83
2022/06/22 09:25:34;;;;;;;5.35;2.05;;;21.60;74.30;;;;;;5003209;28;20127;-84
2022/06/22 09:28:03;;;;;;;6.07;2.00;;;21.50;74.90;;;;;;4986390;28;20038;-87
2022/06/22 09:31:04;;;;;;;3.50;1.80;;;21.50;77.10;;;;;;5008935;28;20041;-85
2022/06/22 09:33:52;;;;;;;4.97;2.40;;;21.40;77.80;;;;;;5005835;28;20036;-84
2022/06/22 09:36:20;;;;;;;5.85;2.03;;;21.40;77.80;;;;;;4995529;28;20030;-83
2022/06/22 09:39:04;;;;;;;6.75;1.90;;;21.40;77.60;;;;;;5009532;28;20030;-84
2022/06/22 09:41:55;;;;;;;3.90;2.20;;;21.30;79.10;;;;;;5004609;28;20189;-79
2022/06/22 09:44:51;;;;;;;4.75;2.30;;;21.40;81.70;;;;;;5005424;28;20084;-79
2022/06/22 09:47:45;;;;;;;5.60;2.30;;;21.30;88.70;;;;;;4998873;28;20038;-81
2022/06/22 09:50:10;;;;;;;6.45;2.72;;;21.30;90.20;;;;;;5012774;28;20486;-81
2022/06/22 09:53:01;;;;;;;5.18;2.60;;;21.30;91.10;;;;;;4995176;28;20053;-83
2022/06/22 09:59:06;;;;;;;6.38;2.78;;;21.20;92.40;;;;;;4998611;28;20129;-83
2022/06/22 10:01:50;;;;;;;7.70;2.92;;;21.30;93.20;;;;;;5017187;28;20032;-81
2022/06/22 10:04:40;;;;;;;5.05;2.60;;;21.30;93.70;;;;;;5003629;28;20026;-81
2022/06/22 10:07:34;;;;;;;4.55;2.70;;;21.40;93.70;;;;;;4996603;28;20057;-82
2022/06/22 10:10:41;;;;;;;3.95;2.83;;;21.50;93.90;;;;;;5006859;28;20057;-82
2022/06/22 10:13:27;;;;;;;5.35;2.65;;;21.50;94.50;;;;;;4969317;28;20083;-82
2022/06/22 10:15:58;;;;;;;6.10;2.95;;;21.60;94.40;;;;;;4964484;28;20492;-81
2022/06/22 10:18:36;;;;;;;5.63;2.97;;;21.60;93.80;;;;;;4970995;28;20058;-81
2022/06/22 10:21:31;;;;;;;5.43;2.97;;;21.70;93.60;;;;;;4955561;28;20471;-82
2022/06/22 10:23:59;;;;;;;5.38;3.10;;;21.80;93.80;;;;;;4945339;28;20031;-82
2022/06/22 10:27:07;;;;;;;5.85;2.60;;;21.90;92.90;;;;;;4977522;28;20076;-82
2022/06/22 10:30:12;;;;;;;5.38;2.70;;;21.80;92.60;;;;;;4967607;28;20341;-82
2022/06/22 10:32:56;;;;;;;6.22;2.70;;;22.10;92.80;;;;;;4965400;28;20575;-82
2022/06/22 10:35:24;;;;;;;8.52;3.20;;;22.10;92.20;;;;;;4971699;28;20091;-81
2022/06/22 10:38:01;;;;;;;10.73;3.97;;;22.20;92.00;;;;;;4967322;28;20038;-81
2022/06/22 10:47:21;;;;;;;8.77;2.97;;;22.30;92.00;;;;;;5027610;28;20040;-82
2022/06/22 10:49:57;;;;;;;5.50;3.33;;;22.40;92.40;;;;;;5026528;28;20097;-77
2022/06/22 10:52:58;;;;;;;4.55;3.40;;;22.40;92.60;;;;;;5025447;28;20061;-79
2022/06/22 10:55:39;;;;;;;41.05;21.45;;;22.50;93.30;;;;;;5032185;28;20033;-78
2022/06/22 10:58:21;;;;;;;37.83;22.25;;;22.50;93.60;;;;;;5034674;28;20120;-78
2022/06/22 11:01:27;;;;;;;24.67;14.40;;;22.40;94.10;;;;;;5027276;28;20029;-85
2022/06/22 11:04:30;;;;;;;11.00;7.47;;;22.50;93.60;;;;;;5021118;28;20120;-82
2022/06/22 11:07:24;;;;;;;9.27;5.50;;;22.60;93.70;;;;;;5029060;28;20035;-92
2022/06/22 11:09:59;;;;;;;12.23;5.22;;;22.60;93.70;;;;;;5015310;28;20041;-92
2022/06/22 11:12:58;;;;;;;9.90;4.68;;;22.70;93.70;;;;;;5030079;28;20110;-92
2022/06/22 11:15:26;;;;;;;9.48;4.75;;;22.80;94.70;;;;;;5014207;28;20026;-91
2022/06/22 11:18:10;;;;;;;11.00;5.75;;;22.80;94.80;;;;;;5021601;28;20026;-91
2022/06/22 11:21:09;;;;;;;10.52;5.15;;;22.80;94.40;;;;;;5030243;28;20045;-91
2022/06/22 11:23:34;;;;;;;7.38;5.00;;;22.80;94.40;;;;;;5028244;28;20048;-90
2022/06/22 11:32:57;;;;;;;7.50;4.80;;;23.00;95.50;;;;;;5033578;28;20032;-91
2022/06/22 11:35:34;;;;;;;10.13;5.22;;;23.00;95.90;;;;;;5027547;28;20033;-92
2022/06/22 11:38:23;;;;;;;9.45;5.32;;;23.10;95.60;;;;;;5027939;28;20049;-92
2022/06/22 11:41:00;;;;;;;10.48;5.10;;;23.00;96.10;;;;;;5033790;28;20033;-87
2022/06/22 11:43:44;;;;;;;14.57;7.43;;;23.10;96.10;;;;;;5034362;28;20051;-78
2022/06/22 11:46:22;;;;;;;14.68;9.18;;;23.10;95.90;;;;;;5029777;28;20022;-84
2022/06/22 11:49:02;;;;;;;9.20;6.45;;;22.90;96.50;;;;;;5029667;28;20052;-89
2022/06/22 11:51:55;;;;;;;11.00;5.78;;;22.90;96.80;;;;;;5015120;28;20466;-89
2022/06/22 11:54:36;;;;;;;11.07;6.30;;;22.90;96.90;;;;;;5017284;28;20038;-91
2022/06/22 11:57:26;;;;;;;9.48;5.45;;;22.90;97.20;;;;;;5031216;28;20026;-89
2022/06/22 11:59:55;;;;;;;9.98;4.95;;;22.80;97.60;;;;;;5036496;28;20168;-83
2022/06/22 12:02:32;;;;;;;9.13;5.35;;;23.00;98.10;;;;;;5031476;28;20037;-87
2022/06/22 12:05:19;;;;;;;8.38;5.47;;;23.00;98.50;;;;;;5034983;28;20152;-83
2022/06/22 12:07:53;;;;;;;10.10;5.63;;;23.00;98.50;;;;;;5029479;28;20017;-83
2022/06/22 12:10:44;;;;;;;11.75;6.03;;;23.10;98.70;;;;;;5002333;28;20050;-84
2022/06/22 12:15:04;;;;;;;12.35;5.60;;;23.20;99.50;;;;;;5005549;28;20028;-84
2022/06/22 12:16:44;;;;;;;8.80;5.32;;;23.20;99.70;;;;;;4952047;28;20027;-84
2022/06/22 12:19:44;;;;;;;11.43;6.18;;;23.30;99.60;;;;;;4998580;28;20030;-85
2022/06/22 12:22:24;;;;;;;9.85;6.10;;;23.40;99.10;;;;;;5015699;28;20076;-84
2022/06/22 12:24:59;;;;;;;9.18;6.03;;;23.50;99.40;;;;;;5011545;28;20027;-83
2022/06/22 12:27:36;;;;;;;10.63;6.38;;;23.50;99.80;;;;;;4993485;28;20029;-83
2022/06/22 12:30:04;;;;;;;9.98;6.00;;;23.50;99.30;;;;;;5014236;28;20034;-82
2022/06/22 12:32:49;;;;;;;8.93;6.00;;;23.60;99.60;;;;;;5022278;28;20528;-82
2022/06/22 12:35:55;;;;;;;16.88;5.80;;;23.60;99.20;;;;;;5014416;28;20018;-82
2022/06/22 12:38:38;;;;;;;11.50;6.50;;;23.70;99.50;;;;;;4969005;28;20042;-82
2022/06/22 12:41:29;;;;;;;10.82;6.35;;;23.70;99.90;;;;;;5013186;28;20034;-83
2022/06/22 12:43:58;;;;;;;8.90;6.30;;;23.80;99.40;;;;;;5014532;28;20022;-84
2022/06/22 12:46:45;;;;;;;10.32;6.40;;;23.80;99.20;;;;;;5014988;28;20095;-89
2022/06/22 12:49:44;;;;;;;10.98;6.13;;;23.70;99.30;;;;;;4990311;28;20034;-87
2022/06/22 12:52:25;;;;;;;9.75;6.22;;;23.60;99.90;;;;;;4996272;28;20035;-88
2022/06/22 12:55:02;;;;;;;7.65;5.93;;;23.60;99.90;;;;;;5000233;28;20132;-88
2022/06/22 12:57:37;;;;;;;7.93;5.97;;;23.60;99.90;;;;;;4993227;28;20018;-84
2022/06/22 13:00:23;;;;;;;9.77;5.90;;;23.50;99.90;;;;;;4995526;28;20428;-85
2022/06/22 13:02:51;;;;;;;13.05;6.40;;;23.50;99.90;;;;;;4995076;28;20080;-85
2022/06/22 13:05:25;;;;;;;9.50;5.63;;;23.50;99.90;;;;;;5006171;28;20025;-85
2022/06/22 13:08:00;;;;;;;10.35;5.60;;;23.50;99.90;;;;;;4995279;28;20053;-84
2022/06/22 13:10:34;;;;;;;11.18;5.60;;;23.60;99.90;;;;;;5013851;28;20438;-91
2022/06/22 13:13:21;;;;;;;9.45;5.75;;;23.60;99.90;;;;;;5014353;28;20282;-85
2022/06/22 13:16:01;;;;;;;8.50;6.03;;;23.80;99.90;;;;;;5020378;28;20018;-86
2022/06/22 13:18:56;;;;;;;9.32;5.35;;;23.80;99.90;;;;;;4999789;28;20028;-87
2022/06/22 13:21:33;;;;;;;11.70;6.18;;;23.90;99.80;;;;;;5004150;28;20053;-85
2022/06/22 13:24:23;;;;;;;8.60;5.18;;;24.00;99.90;;;;;;4994808;28;20406;-86
2022/06/22 13:27:13;;;;;;;10.48;6.13;;;24.00;99.60;;;;;;4998543;28;20014;-90
2022/06/22 13:29:55;;;;;;;9.10;6.00;;;24.00;99.70;;;;;;4985097;28;20113;-84
2022/06/22 13:32:23;;;;;;;9.30;6.28;;;23.90;99.90;;;;;;5013759;28;20041;-83
2022/06/22 13:35:03;;;;;;;10.98;6.18;;;23.80;99.90;;;;;;5007812;28;20026;-84
2022/06/22 13:37:50;;;;;;;11.30;6.35;;;23.80;99.90;;;;;;4996526;28;20030;-85
2022/06/22 13:40:29;;;;;;;9.77;5.97;;;23.80;99.90;;;;;;5015078;28;20042;-85
2022/06/22 13:43:13;;;;;;;11.48;6.47;;;23.90;99.90;;;;;;4997280;28;20113;-84
2022/06/22 13:46:13;;;;;;;11.35;6.30;;;23.90;99.90;;;;;;5003632;28;20518;-84
2022/06/22 13:49:25;;;;;;;12.23;6.10;;;23.80;99.90;;;;;;5010485;28;20080;-83
2022/06/22 13:52:15;;;;;;;8.43;5.72;;;23.80;99.90;;;;;;4996201;28;20048;-83
2022/06/22 13:54:58;;;;;;;11.40;6.53;;;23.90;99.90;;;;;;5003695;28;20026;-82
2022/06/22 13:58:03;;;;;;;14.23;7.50;;;23.90;99.90;;;;;;5000035;28;20467;-83
2022/06/22 14:00:56;;;;;;;8.70;6.07;;;23.90;99.90;;;;;;4929719;28;20065;-83
2022/06/22 14:03:30;;;;;;;11.75;6.72;;;23.80;99.90;;;;;;5013383;28;20056;-82
2022/06/22 14:06:10;;;;;;;11.80;6.95;;;23.80;99.90;;;;;;5012116;28;20061;-84
2022/06/22 14:09:13;;;;;;;10.95;6.43;;;23.80;99.90;;;;;;5006265;28;20025;-84
2022/06/22 14:11:45;;;;;;;10.40;6.60;;;23.80;99.90;;;;;;5012569;28;20034;-82
2022/06/22 14:14:28;;;;;;;8.18;6.28;;;23.80;99.90;;;;;;5012481;28;20034;-80
2022/06/22 14:17:03;;;;;;;9.13;6.32;;;23.80;99.90;;;;;;4993833;28;20026;-84